• Join FlightAware (Why Join?)
  • Login
  • US Flag 
06:17AM EDT


 

Airport Tracker/Info


-or-


 

Live Flight TrackerFlight Track Log ✈ FFT750 ✈ 30-Jun-2013 ✈ KDEN - KOMA

Flight Track Log - Related Links

Times and Time Zones

All times are in EDT time to prevent confusion due to time zone crossing. See the FFT750 flight status page for this flight to view local times or setup timezone preferences in your user account.

Time Position Orientation Groundspeed Altitude Reporting Facility
EDT Latitude Longitude Course Direction KTS MPH feet Rate Location/Type
01:06PM 39.9308 -104.6419 79° East 196 226 7,800  Level Denver Center
01:07PM 39.9497 -104.5492 75° East 276 318 9,500 1,020 Climbing Denver Center
01:08PM 39.9539 -104.4322 87° East 297 342 10,000 1,020 Climbing Denver Center
01:09PM 39.9633 -104.3169 84° East 322 371 11,700 1,200 Climbing Denver Center
01:10PM 39.9781 -104.1844 82° East 341 392 12,500 1,320 Climbing Denver Center
01:11PM 39.9925 -104.0494 82° East 371 427 14,500 1,980 Climbing Denver Center
01:12PM 39.9992 -103.8221 79° East  Level FlightAware Approximate
01:12PM 40.0064 -103.9078 83° East 391 450 16,600  Level Denver Center
01:13PM 40.0233 -103.7519 82° East 407 468 18,800 2,040 Climbing Denver Center
01:14PM 40.0481 -103.6025 78° East 408 470 20,900 1,920 Climbing Denver Center
01:15PM 40.0722 -103.4533 78° East 437 503 22,800 1,740 Climbing Denver Center
01:16PM 40.1008 -103.2756 78° East 449 517 24,600 1,740 Climbing Denver Center
01:17PM 40.1258 -103.1175 78° East 463 533 26,400 1,740 Climbing Denver Center
01:18PM 40.1561 -102.9317 78° East 467 537 28,300 1,920 Climbing Denver Center
01:19PM 40.1806 -102.7703 79° East 472 543 30,500 1,980 Climbing Denver Center
01:21PM 40.2092 -102.5906 78° East 453 521 32,500 1,740 Climbing Denver Center
01:22PM 40.2325 -102.4333 79° East 459 528 34,100 1,740 Climbing Denver Center
01:23PM 40.2600 -102.2536 79° East 454 522 36,100 1,500 Climbing Denver Center
01:24PM 40.2833 -102.1008 79° East 450 518 37,300 1,200 Climbing Denver Center
01:25PM 40.3100 -101.9250 79° East 443 510 38,600 780 Climbing Denver Center
01:26PM 40.3317 -101.7728 79° East 443 510 39,000 180 Climbing Denver Center
01:27PM 40.3578 -101.5972 79° East 441 507 39,000  Level Denver Center
01:28PM 40.3833 -101.4219 79° East 439 505 39,000  Level Denver Center
01:29PM 40.4072 -101.2506 80° East 433 498 39,000  Level Denver Center
01:30PM 40.4281 -101.1014 80° East 436 502 39,000  Level Denver Center
01:31PM 40.4533 -100.9258 79° East 441 507 39,100  Climbing Denver Center
01:32PM 40.4844 -100.7792 74° East 439 505 39,100 -60 Level Denver Center
01:33PM 40.5206 -100.6092 74° East 438 504 39,000 -60 Descending Denver Center
01:34PM 40.5517 -100.4625 74° East 438 504 39,000  Level Denver Center
01:35PM 40.5878 -100.2903 75° East 441 507 39,000  Level Denver Center
01:37PM 40.6550 -99.9711 74° East 438 504 39,000  Level Denver Center
01:38PM 40.6886 -99.8056 75° East 437 503 39,000  Level Denver Center
01:39PM 40.7203 -99.6525 75° East 434 499 39,000  Level Denver Center
01:40PM 40.7456 -99.5322 74° East 432 497 39,000 -600 Level Minneapolis Center
01:42PM 40.8142 -99.1883 75° East 443 510 37,300 -1,020 Descending Denver Center
01:44PM 40.8450 -99.0261 76° East 443 510 35,800 -1,140 Descending Minneapolis Center
01:45PM 40.8778 -98.8353 77° East 444 511 35,000 -420 Descending Minneapolis Center
01:46PM 40.9014 -98.6747 79° East 446 513 35,000  Level Minneapolis Center
01:47PM 40.9278 -98.5136 78° East 447 514 35,000  Level Minneapolis Center
01:48PM 40.9550 -98.3339 79° East 450 518 35,000  Level Minneapolis Center
01:49PM 40.9794 -98.1742 78° East 447 514 35,000 -840 Level Minneapolis Center
01:50PM 41.0039 -98.0139 79° East 446 513 33,300 -2,040 Descending Minneapolis Center
01:51PM 41.0289 -97.8475 79° East 457 526 30,900 -2,220 Descending Minneapolis Center
01:52PM 41.0531 -97.6886 79° East 446 513 28,800 -2,040 Descending Minneapolis Center
01:53PM 41.0758 -97.5356 79° East 430 495 26,700 -2,160 Descending Minneapolis Center
01:54PM 41.0992 -97.3717 79° East 415 478 24,400 -2,040 Descending Minneapolis Center
01:55PM 41.1194 -97.2300 79° East 399 459 22,500 -2,100 Descending Minneapolis Center
01:56PM 41.1306 -97.0311 86° East 374 430 19,500 -2,400 Descending Minneapolis Center
01:57PM 41.1519 -96.9306 74° East 372 428 17,600 -2,340 Descending Minneapolis Center
01:58PM 41.1600 -96.7953 85° East 369 425 15,300 -2,160 Descending Minneapolis Center
01:59PM 41.1686 -96.6647 85° East 360 414 13,200 -2,400 Descending Minneapolis Center
02:00PM 41.1708 -96.5042 89° East 334 384 10,000 -1,980 Descending Minneapolis Center
02:01PM 41.1839 -96.4222 78° East 328 377 9,200 -1,380 Descending Minneapolis Center
02:02PM 41.1869 -96.2919 88° East 265 305 7,200 -1,680 Descending Minneapolis Center
02:03PM 41.1967 -96.2078 81° East 269 310 5,800 -1,680 Descending Minneapolis Center
02:04PM 41.2031 -96.1125 85° East 264 304 4,000 -1,320 Descending Minneapolis Center
02:06PM 41.2094 -95.9903 86° East 231 266 2,700 -660 Descending Minneapolis Center
02:06PM 41.2119 -95.9450 86° East 227 261 2,700 -420 Level Minneapolis Center
02:07PM 41.2264 -95.8928 70° East 182 209 2,000 -540 Descending Minneapolis Center
02:08PM 41.2619 -95.8631 32° Northeast 145 167 1,600 -540 Descending Minneapolis Center
02:09PM 41.2928 -95.8861 331° Northwest 133 153 1,000 -600 Descending Minneapolis Center
02:11PM 41.3000 -95.8833 333° Northwest  Level FlightAware Approximate